Dades meteomassalio
Diari Summary for Noviembre 29, 2017 Units:  Metric    English   Both
« Previous Day
Next Day »
Diari Semanal Mensual Anual Personalitzat
  Maxima: Minima: Mijana:
Temperatura: -17.8 °C -19 °C -14.9 °C
Rosada: -17.8 °C -21.6 °C -18.1 °C
Humitat: Humidity % 51 % 67 %
Velocitat del vent: 0 km/h 0 km/h 28.2 km/h
Racha vent: 0 km/h - -
Vent:- - WNW
Pressio: 0 hPa 34198.6 hPa -
Pluja: 0 mm    
Historical Graphs
 
 
Tabular Data for Noviembre 29, 2017
Time Temperature Dew Point Pressure Wind Wind Speed Wind Gust Humidity Rainfall Rate (Hourly) solar Conditions
-17.8 °C -17.8 °C 0 hPa Calm     Humidity % 0 mm SolarRadiationWatts/m^2 W/m2 Conditions
00:04 -17.8 °C -19.9 °C 34371.3 hPa Calm     75 % 0 mm 0.0 W/m2 CLR
00:09 -17.8 °C -19.9 °C 34371.3 hPa Calm     75 % 0 mm 0.0 W/m2 CLR
00:14 -17.8 °C -19.9 °C 34371.3 hPa Calm     75 % 0 mm 0.0 W/m2 CLR
00:19 -17.8 °C -19.9 °C 34371.3 hPa Calm     75 % 0 mm 0.0 W/m2 CLR
00:24 -18.1 °C -20.2 °C 34371.3 hPa Calm     75 % 0 mm 0.0 W/m2 CLR
00:29 -18.1 °C -20.2 °C 34371.3 hPa Calm     75 % 0 mm 0.0 W/m2 CLR
00:35 -17.8 °C -19.9 °C 34371.3 hPa Calm     75 % 0 mm 0.0 W/m2 CLR
00:39 -17.8 °C -19.8 °C 34371.3 hPa Calm     76 % 0 mm 0.0 W/m2 CLR
00:45 -17.8 °C -19.8 °C 34361.1 hPa Calm     76 % 0 mm 0.0 W/m2 CLR
00:50 -17.8 °C -19.9 °C 34361.1 hPa Calm     75 % 0 mm 0.0 W/m2 CLR
00:55 -17.8 °C -20.1 °C 34361.1 hPa Calm     74 % 0 mm 0.0 W/m2 CLR
01:04 -17.8 °C -19.9 °C 34347.6 hPa Calm     75 % 0 mm 0.0 W/m2 CLR
01:10 -17.8 °C -19.8 °C 34347.6 hPa Calm     76 % 0 mm 0.0 W/m2 CLR
01:15 -17.8 °C -19.8 °C 34347.6 hPa Calm     76 % 0 mm 0.0 W/m2 CLR
01:20 -17.4 °C -19.7 °C 34347.6 hPa Calm     75 % 0 mm 0.0 W/m2 CLR
01:25 -17.4 °C -19.7 °C 34347.6 hPa Calm     75 % 0 mm 0.0 W/m2 CLR
01:30 -17.4 °C -19.7 °C 34347.6 hPa Calm     75 % 0 mm 0.0 W/m2 CLR
01:35 -17.4 °C -19.6 °C 34337.4 hPa Calm     76 % 0 mm 0.0 W/m2 CLR
01:40 -17.4 °C -19.7 °C 34337.4 hPa Calm     75 % 0 mm 0.0 W/m2 CLR
01:50 -17.8 °C -20.1 °C 34337.4 hPa Calm     74 % 0 mm 0.0 W/m2 CLR
01:55 -17.8 °C -20.1 °C 34337.4 hPa Calm     74 % 0 mm 0.0 W/m2 CLR
02:00 -17.8 °C -19.9 °C 34327.3 hPa Calm     75 % 0 mm 0.0 W/m2 CLR
02:05 -17.8 °C -19.9 °C 34327.3 hPa Calm     75 % 0 mm 0.0 W/m2 CLR
02:10 -17.8 °C -19.9 °C 34327.3 hPa Calm     75 % 0 mm 0.0 W/m2 CLR
02:15 -17.8 °C -19.9 °C 34327.3 hPa Calm     75 % 0 mm 0.0 W/m2 CLR
02:20 -17.8 °C -20.1 °C 34327.3 hPa Calm     74 % 0 mm 0.0 W/m2 CLR
02:25 -17.8 °C -19.9 °C 34327.3 hPa Calm     75 % 0 mm 0.0 W/m2 CLR
02:30 -17.8 °C -19.9 °C 34313.7 hPa Calm     75 % 0 mm 0.0 W/m2 CLR
02:40 -18.1 °C -20.2 °C 34313.7 hPa Calm     76 % 0 mm 0.0 W/m2 CLR
02:45 -18.1 °C -20.2 °C 34313.7 hPa Calm     76 % 0 mm 0.0 W/m2 CLR
02:50 -17.8 °C -19.8 °C 34313.7 hPa Calm     76 % 0 mm 0.0 W/m2 CLR
03:00 -17.8 °C -20.1 °C 34313.7 hPa Calm     74 % 0 mm 0.0 W/m2 CLR
03:05 -17.8 °C -20.1 °C 34313.7 hPa Calm     74 % 0 mm 0.0 W/m2 CLR
03:10 -17.8 °C -20.2 °C 34303.6 hPa Calm     73 % 0 mm 0.0 W/m2 CLR
03:15 -17.8 °C -20.1 °C 34303.6 hPa Calm     74 % 0 mm 0.0 W/m2 CLR
03:20 -17.8 °C -19.9 °C 34303.6 hPa Calm     75 % 0 mm 0.0 W/m2 CLR
03:25 -17.8 °C -19.9 °C 34303.6 hPa Calm     75 % 0 mm 0.0 W/m2 CLR
03:30 -17.8 °C -20.1 °C 34293.4 hPa Calm     74 % 0 mm 0.0 W/m2 CLR
03:35 -17.8 °C -20.1 °C 34293.4 hPa Calm     74 % 0 mm 0.0 W/m2 CLR
03:40 -17.8 °C -20.1 °C 34293.4 hPa Calm     74 % 0 mm 0.0 W/m2 CLR
03:45 -17.8 °C -20.1 °C 34293.4 hPa Calm     74 % 0 mm 0.0 W/m2 CLR
03:50 -17.8 °C -20.1 °C 34293.4 hPa Calm     74 % 0 mm 0.0 W/m2 CLR
03:55 -17.8 °C -19.9 °C 34293.4 hPa Calm     75 % 0 mm 0.0 W/m2 CLR
04:00 -17.8 °C -19.9 °C 34293.4 hPa Calm     75 % 0 mm 0.0 W/m2 CLR
04:05 -17.8 °C -19.9 °C 34293.4 hPa Calm     75 % 0 mm 0.0 W/m2 CLR
04:11 -17.8 °C -19.9 °C 34279.9 hPa Calm     75 % 0 mm 0.0 W/m2 CLR
04:18 -17.8 °C -19.9 °C 34279.9 hPa Calm     75 % 0 mm 0.0 W/m2 CLR
04:19 -17.8 °C -19.9 °C 34279.9 hPa Calm     75 % 0 mm 0.0 W/m2 CLR
04:22 -17.8 °C -20.1 °C 34279.9 hPa Calm     74 % 0 mm 0.0 W/m2 CLR
04:24 -17.8 °C -19.9 °C 34279.9 hPa Calm     75 % 0 mm 0.0 W/m2 CLR
04:26 -18.1 °C -20.2 °C 34279.9 hPa Calm     75 % 0 mm 0.0 W/m2 CLR
04:28 -18.1 °C -20.2 °C 34279.9 hPa Calm     75 % 0 mm 0.0 W/m2 CLR
04:31 -18.1 °C -20.2 °C 34279.9 hPa Calm     75 % 0 mm 0.0 W/m2 CLR
04:36 -18.1 °C -20.3 °C 34279.9 hPa Calm     74 % 0 mm 0.0 W/m2 CLR
04:56 -18.1 °C -20.3 °C 34269.7 hPa Calm     74 % 0 mm 0.0 W/m2 CLR
05:06 -18.1 °C -20.3 °C 34269.7 hPa Calm     74 % 0 mm 0.0 W/m2 CLR
05:16 -18.1 °C -20.3 °C 34269.7 hPa Calm     74 % 0 mm 0.0 W/m2 CLR
05:21 -18.1 °C -20.4 °C 34256.2 hPa Calm     73 % 0 mm 0.0 W/m2 CLR
05:26 -18.4 °C -20.8 °C 34269.7 hPa Calm     72 % 0 mm 0.0 W/m2 CLR
05:31 -18.4 °C -20.8 °C 34269.7 hPa Calm     72 % 0 mm 0.0 W/m2 CLR
05:41 -18.4 °C -20.9 °C 34256.2 hPa Calm     71 % 0 mm 0.0 W/m2 CLR
05:51 -18.4 °C -20.8 °C 34256.2 hPa Calm     72 % 0 mm 0.0 W/m2 CLR
05:56 -18.7 °C -21.2 °C 34256.2 hPa Calm     72 % 0 mm 0.0 W/m2 CLR
06:01 -18.7 °C -21.2 °C 34256.2 hPa Calm     72 % 0 mm 0.0 W/m2 CLR
06:06 -18.7 °C -21.1 °C 34256.2 hPa Calm     73 % 0 mm 0.0 W/m2 CLR
06:11 -18.7 °C -21.1 °C 34256.2 hPa Calm     73 % 0 mm 0.0 W/m2 CLR
06:16 -18.7 °C -21.1 °C 34256.2 hPa Calm     73 % 0 mm 0.0 W/m2 CLR
06:21 -19 °C -21.3 °C 34256.2 hPa Calm     73 % 0 mm 0.0 W/m2 CLR
06:36 -19 °C -21.2 °C 34256.2 hPa Calm     74 % 0 mm 0.0 W/m2 CLR
06:46 -18.7 °C -21.1 °C 34256.2 hPa WNW 12.9 km/h 12.9 km/h 73 % 0 mm 0.0 W/m2 CLR
06:51 -18.7 °C -21.1 °C 34246 hPa WNW 23.8 km/h 23.8 km/h 73 % 0 mm 0.0 W/m2 CLR
06:56 -18.4 °C -21.1 °C 34246 hPa WNW 29.8 km/h 29.8 km/h 70 % 0 mm 0.0 W/m2 CLR
07:11 -18.4 °C -21.3 °C 34246 hPa NW 23.8 km/h 23.8 km/h 67 % 0 mm 0.0 W/m2 CLR
07:16 -18.4 °C -21.3 °C 34246 hPa NW 29.8 km/h 29.8 km/h 67 % 0 mm 0.0 W/m2 CLR
07:26 -18.7 °C -21.6 °C 34246 hPa NW 29.8 km/h 29.8 km/h 68 % 0 mm 0.0 W/m2 CLR
07:37 -18.7 °C -21.3 °C 34246 hPa NW 26.9 km/h 26.9 km/h 70 % 0 mm 0.0 W/m2 CLR
07:42 -19 °C -21.6 °C 34235.8 hPa NW 23.8 km/h 23.8 km/h 71 % 0 mm 0.0 W/m2 CLR
07:47 -19 °C -21.4 °C 34246 hPa WNW 29.8 km/h 29.8 km/h 72 % 0 mm 0.0 W/m2 CLR
07:52 -19 °C -21.3 °C 34246 hPa NW 35.7 km/h 35.7 km/h 73 % 0 mm 0.0 W/m2 CLR
07:57 -19 °C -21.3 °C 34246 hPa NW 31.1 km/h 31.1 km/h 73 % 0 mm 0.0 W/m2 CLR
08:02 -18.7 °C -20.9 °C 34235.8 hPa WNW 31.1 km/h 31.1 km/h 74 % 0 mm 0.0 W/m2 OVC
08:12 -16.2 °C -18.6 °C 34235.8 hPa WNW 38.8 km/h 38.8 km/h 74 % 0 mm 5.0 W/m2 OVC
08:17 -15.6 °C -17.9 °C 34246 hPa NW 41.7 km/h 41.7 km/h 74 % 0 mm 7.0 W/m2 OVC
08:22 -15 °C -17.4 °C 34246 hPa NW 36.2 km/h 36.2 km/h 74 % 0 mm 7.0 W/m2 BKN
08:27 -15 °C -17.3 °C 34246 hPa NW 29.8 km/h 29.8 km/h 75 % 0 mm 9.0 W/m2 BKN
08:32 -15 °C -17.3 °C 34246 hPa NW 29.8 km/h 29.8 km/h 75 % 0 mm 11.0 W/m2 BKN
08:37 -15 °C -17.2 °C 34246 hPa WNW 38.8 km/h 38.8 km/h 76 % 0 mm 12.0 W/m2 BKN
08:42 -15 °C -17.2 °C 34246 hPa NW 31.1 km/h 31.1 km/h 76 % 0 mm 14.0 W/m2 BKN
08:47 -14.7 °C -16.8 °C 34256.2 hPa NW 35.7 km/h 35.7 km/h 76 % 0 mm 19.0 W/m2 BKN
08:52 -14.7 °C -16.8 °C 34256.2 hPa WNW 29.8 km/h 29.8 km/h 76 % 0 mm 23.0 W/m2 BKN
08:57 -14.7 °C -16.8 °C 34256.2 hPa NW 26.9 km/h 26.9 km/h 76 % 0 mm 37.0 W/m2 BKN
09:07 -14.7 °C -17 °C 34256.2 hPa WNW 29.8 km/h 29.8 km/h 75 % 0 mm 77.0 W/m2 SCT
09:12 -14.4 °C -16.7 °C 34269.7 hPa NW 32.8 km/h 32.8 km/h 75 % 0 mm 95.0 W/m2 FEW
09:17 -14.4 °C -16.8 °C 34269.7 hPa WNW 29.8 km/h 29.8 km/h 74 % 0 mm 120.0 W/m2 CLR
09:27 -14.1 °C -16.6 °C 34269.7 hPa West 35.7 km/h 35.7 km/h 73 % 0 mm 134.0 W/m2 CLR
09:32 -14.1 °C -16.7 °C 34269.7 hPa WNW 35.7 km/h 35.7 km/h 72 % 0 mm 153.0 W/m2 CLR
09:37 -13.8 °C -16.4 °C 34269.7 hPa WNW 29.8 km/h 29.8 km/h 72 % 0 mm 178.0 W/m2 CLR
09:47 -13.8 °C -16.5 °C 34269.7 hPa NW 38.8 km/h 38.8 km/h 71 % 0 mm 156.0 W/m2 CLR
09:52 -13.4 °C -16.2 °C 34269.7 hPa NNW 38.8 km/h 38.8 km/h 71 % 0 mm 220.0 W/m2 CLR
09:57 -13.4 °C -16.3 °C 34269.7 hPa WNW 38.8 km/h 38.8 km/h 70 % 0 mm 202.0 W/m2 CLR
10:07 -13.4 °C -16.4 °C 34269.7 hPa NW 41.7 km/h 41.7 km/h 69 % 0 mm 260.0 W/m2 CLR
10:12 -13.4 °C -16.4 °C 34269.7 hPa NNW 29.8 km/h 29.8 km/h 69 % 0 mm 269.0 W/m2 CLR
10:17 -13.2 °C -16.1 °C 34269.7 hPa NNW 32.8 km/h 32.8 km/h 69 % 0 mm 279.0 W/m2 CLR
10:32 -13.2 °C -16.2 °C 34269.7 hPa NNW 44.1 km/h 44.1 km/h 68 % 0 mm 309.0 W/m2 CLR
10:42 -12.8 °C -15.8 °C 34269.7 hPa North 32.8 km/h 32.8 km/h 69 % 0 mm 325.0 W/m2 CLR
10:47 -12.8 °C -15.9 °C 34269.7 hPa NNW 44.7 km/h 44.7 km/h 68 % 0 mm 339.0 W/m2 CLR
10:52 -12.8 °C -15.9 °C 34269.7 hPa NW 20.9 km/h 20.9 km/h 68 % 0 mm 346.0 W/m2 CLR
11:02 -12.8 °C -16.1 °C 34269.7 hPa NNW 46.7 km/h 46.7 km/h 67 % 0 mm 355.0 W/m2 CLR
11:12 -12.6 °C -15.9 °C 34269.7 hPa North 50.7 km/h 50.7 km/h 66 % 0 mm 388.0 W/m2 CLR
11:17 -12.6 °C -16 °C 34269.7 hPa NNW 35.7 km/h 35.7 km/h 65 % 0 mm 93.0 W/m2 CLR
11:22 -12.6 °C -16 °C 34269.7 hPa North 38.8 km/h 38.8 km/h 65 % 0 mm 415.0 W/m2 CLR
11:27 -12.6 °C -16 °C 34269.7 hPa NNW 35.7 km/h 35.7 km/h 65 % 0 mm 434.0 W/m2 CLR
11:32 -12.2 °C -15.8 °C 34269.7 hPa NNE 36.2 km/h 36.2 km/h 64 % 0 mm 91.0 W/m2 CLR
11:37 -12.6 °C -16.2 °C 34269.7 hPa NNW 32.8 km/h 32.8 km/h 64 % 0 mm 60.0 W/m2 FEW
11:42 -12.6 °C -16 °C 34256.2 hPa North 32.8 km/h 32.8 km/h 65 % 0 mm 343.0 W/m2 FEW
11:47 -12.6 °C -16.2 °C 34256.2 hPa NNW 41.7 km/h 41.7 km/h 64 % 0 mm 443.0 W/m2 CLR
11:57 -12.2 °C -15.9 °C 34256.2 hPa NNW 50.7 km/h 50.7 km/h 63 % 0 mm 79.0 W/m2 CLR
12:02 -12.6 °C -16.2 °C 34256.2 hPa North 53.6 km/h 53.6 km/h 64 % 0 mm 468.0 W/m2 CLR
12:07 -12.6 °C -16.3 °C 34246 hPa North 68.6 km/h 68.6 km/h 63 % 0 mm 461.0 W/m2 CLR
12:12 -12.2 °C -16.1 °C 34246 hPa NNW 44.7 km/h 44.7 km/h 62 % 0 mm 489.0 W/m2 CLR
12:17 -12.2 °C -16.1 °C 34246 hPa NW 47.6 km/h 47.6 km/h 62 % 0 mm 476.0 W/m2 CLR
12:22 -12.2 °C -16.1 °C 34246 hPa NW 50.7 km/h 50.7 km/h 62 % 0 mm 522.0 W/m2 CLR
12:27 -11.9 °C -15.8 °C 34246 hPa North 25.9 km/h 25.9 km/h 62 % 0 mm 531.0 W/m2 CLR
12:37 -11.6 °C -15.9 °C 34235.8 hPa NNW 47.6 km/h 47.6 km/h 59 % 0 mm 475.0 W/m2 CLR
12:42 -11.6 °C -15.9 °C 34235.8 hPa NNW 31.1 km/h 31.1 km/h 59 % 0 mm 468.0 W/m2 CLR
13:02 -11.9 °C -16.4 °C 34222.3 hPa North 68.6 km/h 68.6 km/h 57 % 0 mm 461.0 W/m2 CLR
13:07 -11.9 °C -16.4 °C 34222.3 hPa North 41.7 km/h 41.7 km/h 57 % 0 mm 452.0 W/m2 CLR
13:12 -11.6 °C -16.2 °C 34222.3 hPa North 51.8 km/h 51.8 km/h 57 % 0 mm 452.0 W/m2 CLR
13:17 -11.6 °C -16.3 °C 34222.3 hPa North 50.7 km/h 50.7 km/h 56 % 0 mm 445.0 W/m2 CLR
13:22 -11.6 °C -16.3 °C 34212.1 hPa North 50.7 km/h 50.7 km/h 56 % 0 mm 443.0 W/m2 CLR
13:27 -11.6 °C -16.6 °C 34212.1 hPa NNW 47.6 km/h 47.6 km/h 54 % 0 mm 441.0 W/m2 CLR
13:32 -11.6 °C -16.6 °C 34222.3 hPa NW 53.6 km/h 53.6 km/h 54 % 0 mm 439.0 W/m2 CLR
13:37 -11.3 °C -16.2 °C 34212.1 hPa North 44.7 km/h 44.7 km/h 55 % 0 mm 436.0 W/m2 CLR
13:47 -11.3 °C -16.2 °C 34212.1 hPa North 62.6 km/h 62.6 km/h 55 % 0 mm 424.0 W/m2 CLR
13:58 -11.3 °C -16.2 °C 34198.6 hPa North 44.7 km/h 44.7 km/h 55 % 0 mm 417.0 W/m2 CLR
14:03 -11.3 °C -16.3 °C 34198.6 hPa NW 50.7 km/h 50.7 km/h 54 % 0 mm 413.0 W/m2 CLR
14:08 -11 °C -16.2 °C 34198.6 hPa North 44.7 km/h 44.7 km/h 53 % 0 mm 404.0 W/m2 CLR
14:13 -11.3 °C -16.4 °C 34212.1 hPa NNW 53.6 km/h 53.6 km/h 53 % 0 mm 397.0 W/m2 CLR
14:23 -11.3 °C -16.3 °C 34198.6 hPa North 41.4 km/h 41.4 km/h 54 % 0 mm 383.0 W/m2 CLR
14:28 -11.3 °C -16.4 °C 34198.6 hPa North 56.6 km/h 56.6 km/h 53 % 0 mm 380.0 W/m2 CLR
14:38 -11.3 °C -16.6 °C 34198.6 hPa North 50.7 km/h 50.7 km/h 52 % 0 mm 353.0 W/m2 CLR
14:48 -11 °C -16.3 °C 34198.6 hPa North 59.5 km/h 59.5 km/h 52 % 0 mm 348.0 W/m2 CLR
14:53 -11 °C -16.2 °C 34198.6 hPa NNW 50.7 km/h 50.7 km/h 53 % 0 mm 338.0 W/m2 CLR
14:58 -11 °C -16.2 °C 34198.6 hPa NNE 51.8 km/h 51.8 km/h 53 % 0 mm 329.0 W/m2 CLR
15:03 -11.3 °C -16.4 °C 34198.6 hPa North 50.7 km/h 50.7 km/h 53 % 0 mm 322.0 W/m2 CLR
15:08 -11.3 °C -16.4 °C 34198.6 hPa North 57 km/h 57 km/h 53 % 0 mm 313.0 W/m2 CLR
15:13 -11.3 °C -16.6 °C 34198.6 hPa NNW 59.5 km/h 59.5 km/h 52 % 0 mm 301.0 W/m2 CLR
15:18 -11.3 °C -16.6 °C 34198.6 hPa North 41.7 km/h 41.7 km/h 52 % 0 mm 288.0 W/m2 CLR
15:28 -11.3 °C -16.8 °C 34198.6 hPa North 44.7 km/h 44.7 km/h 51 % 0 mm 265.0 W/m2 CLR
15:38 -11.3 °C -16.8 °C 34198.6 hPa NNW 56.6 km/h 56.6 km/h 51 % 0 mm 244.0 W/m2 CLR
15:43 -11.3 °C -16.6 °C 34198.6 hPa North 49.2 km/h 49.2 km/h 52 % 0 mm 229.0 W/m2 CLR
15:48 -11.3 °C -16.4 °C 34212.1 hPa North 50.7 km/h 50.7 km/h 53 % 0 mm 214.0 W/m2 CLR
15:58 -11.6 °C -16.7 °C 34212.1 hPa North 44.7 km/h 44.7 km/h 53 % 0 mm 185.0 W/m2 CLR
16:03 -11.9 °C -17 °C 34212.1 hPa NNW 47.6 km/h 47.6 km/h 53 % 0 mm 167.0 W/m2 CLR
16:13 -11.9 °C -16.9 °C 34212.1 hPa NNW 56.6 km/h 56.6 km/h 54 % 0 mm 144.0 W/m2 CLR
16:18 -11.9 °C -16.9 °C 34222.3 hPa North 56.6 km/h 56.6 km/h 54 % 0 mm 81.0 W/m2 CLR
16:23 -11.9 °C -16.7 °C 34222.3 hPa North 47.6 km/h 47.6 km/h 55 % 0 mm 114.0 W/m2 CLR
16:29 -11.9 °C -16.7 °C 34222.3 hPa North 38.8 km/h 38.8 km/h 55 % 0 mm 100.0 W/m2 CLR
16:34 -12.2 °C -17 °C 34222.3 hPa North 35.7 km/h 35.7 km/h 55 % 0 mm 90.0 W/m2 CLR
16:39 -12.2 °C -17 °C 34222.3 hPa NNW 50.7 km/h 50.7 km/h 55 % 0 mm 74.0 W/m2 FEW
16:44 -12.2 °C -16.9 °C 34222.3 hPa NNW 50.7 km/h 50.7 km/h 56 % 0 mm 23.0 W/m2 BKN
16:59 -12.6 °C -17.2 °C 34222.3 hPa North 44.1 km/h 44.1 km/h 56 % 0 mm 33.0 W/m2 BKN
17:04 -12.6 °C -17.1 °C 34222.3 hPa NNW 50.7 km/h 50.7 km/h 57 % 0 mm 21.0 W/m2 BKN
17:09 -12.6 °C -17.1 °C 34222.3 hPa NNW 31.1 km/h 31.1 km/h 57 % 0 mm 14.0 W/m2 BKN
17:14 -12.8 °C -17.2 °C 34222.3 hPa NW 32.8 km/h 32.8 km/h 58 % 0 mm 12.0 W/m2 BKN
17:24 -12.8 °C -17.1 °C 34235.8 hPa NW 35.7 km/h 35.7 km/h 59 % 0 mm 9.0 W/m2 BKN
17:29 -12.8 °C -16.9 °C 34235.8 hPa NNW 31.1 km/h 31.1 km/h 60 % 0 mm 5.0 W/m2 BKN
17:34 -13.2 °C -17.2 °C 34235.8 hPa NW 26.9 km/h 26.9 km/h 60 % 0 mm 5.0 W/m2 OVC
17:44 -13.2 °C -17.1 °C 34235.8 hPa NNW 23.8 km/h 23.8 km/h 61 % 0 mm 0.0 W/m2 CLR
17:49 -13.2 °C -17 °C 34235.8 hPa NW 23.8 km/h 23.8 km/h 62 % 0 mm 0.0 W/m2 CLR
17:59 -13.4 °C -17.3 °C 34246 hPa NNW 26.9 km/h 26.9 km/h 62 % 0 mm 0.0 W/m2 CLR
18:09 -13.4 °C -17.3 °C 34246 hPa NNW 29.8 km/h 29.8 km/h 62 % 0 mm 0.0 W/m2 CLR
18:14 -13.4 °C -17.1 °C 34246 hPa NNW 38.8 km/h 38.8 km/h 63 % 0 mm 0.0 W/m2 CLR
18:17 -13.4 °C -17.1 °C 34256.2 hPa NNW 47.6 km/h 47.6 km/h 63 % 0 mm 0.0 W/m2 CLR
18:22 -13.4 °C -17.1 °C 34256.2 hPa NNW 35.7 km/h 35.7 km/h 63 % 0 mm 0.0 W/m2 CLR
18:32 -13.4 °C -17 °C 34256.2 hPa NW 35.7 km/h 35.7 km/h 64 % 0 mm 0.0 W/m2 CLR
18:37 -13.4 °C -17 °C 34256.2 hPa NW 44.7 km/h 44.7 km/h 64 % 0 mm 0.0 W/m2 CLR
18:42 -13.4 °C -17 °C 34256.2 hPa NW 41.7 km/h 41.7 km/h 64 % 0 mm 0.0 W/m2 CLR
18:47 -13.4 °C -17 °C 34269.7 hPa NNW 44.7 km/h 44.7 km/h 64 % 0 mm 0.0 W/m2 CLR
18:52 -13.4 °C -17 °C 34269.7 hPa NW 32.8 km/h 32.8 km/h 64 % 0 mm 0.0 W/m2 CLR
18:57 -13.4 °C -17 °C 34269.7 hPa NW 41.7 km/h 41.7 km/h 64 % 0 mm 0.0 W/m2 CLR
18:58 -13.4 °C -17 °C 34269.7 hPa NW 41.7 km/h 41.7 km/h 64 % 0 mm 0.0 W/m2 CLR
19:03 -13.4 °C -17 °C 34279.9 hPa NW 41.7 km/h 41.7 km/h 64 % 0 mm 0.0 W/m2 CLR
19:08 -13.4 °C -17 °C 34279.9 hPa NW 26.9 km/h 26.9 km/h 64 % 0 mm 0.0 W/m2 CLR
19:13 -13.4 °C -17 °C 34279.9 hPa NW 44.7 km/h 44.7 km/h 64 % 0 mm 0.0 W/m2 CLR
19:18 -13.8 °C -17.2 °C 34279.9 hPa NW 41.7 km/h 41.7 km/h 65 % 0 mm 0.0 W/m2 CLR
19:23 -13.8 °C -17.2 °C 34279.9 hPa WNW 38.8 km/h 38.8 km/h 65 % 0 mm 0.0 W/m2 CLR
19:28 -13.8 °C -17.2 °C 34293.4 hPa NW 38.8 km/h 38.8 km/h 65 % 0 mm 0.0 W/m2 CLR
19:33 -13.8 °C -17.2 °C 34293.4 hPa NW 38.8 km/h 38.8 km/h 65 % 0 mm 0.0 W/m2 CLR
19:38 -14.1 °C -17.3 °C 34293.4 hPa WNW 35.7 km/h 35.7 km/h 66 % 0 mm 0.0 W/m2 CLR
19:43 -14.1 °C -17.3 °C 34293.4 hPa NNW 29.8 km/h 29.8 km/h 66 % 0 mm 0.0 W/m2 CLR
19:48 -14.1 °C -17.3 °C 34293.4 hPa NW 35.7 km/h 35.7 km/h 66 % 0 mm 0.0 W/m2 CLR
19:53 -14.1 °C -17.3 °C 34293.4 hPa NW 35.7 km/h 35.7 km/h 67 % 0 mm 0.0 W/m2 CLR
19:58 -14.1 °C -17.3 °C 34293.4 hPa NW 36.2 km/h 36.2 km/h 67 % 0 mm 0.0 W/m2 CLR
20:03 -14.1 °C -17.3 °C 34303.6 hPa NW 29.8 km/h 29.8 km/h 67 % 0 mm 0.0 W/m2 CLR
20:08 -14.1 °C -17.3 °C 34303.6 hPa NW 35.7 km/h 35.7 km/h 67 % 0 mm 0.0 W/m2 CLR
20:18 -14.1 °C -17.1 °C 34303.6 hPa NNW 31.1 km/h 31.1 km/h 68 % 0 mm 0.0 W/m2 CLR
20:23 -14.1 °C -17.1 °C 34303.6 hPa NW 32.8 km/h 32.8 km/h 68 % 0 mm 0.0 W/m2 CLR
20:28 -14.4 °C -17.4 °C 34303.6 hPa NW 33.6 km/h 33.6 km/h 68 % 0 mm 0.0 W/m2 CLR
20:43 -14.4 °C -17.4 °C 34303.6 hPa NW 29.8 km/h 29.8 km/h 68 % 0 mm 0.0 W/m2 CLR
20:48 -14.1 °C -17.1 °C 34303.6 hPa WNW 38.8 km/h 38.8 km/h 68 % 0 mm 0.0 W/m2 CLR
20:53 -14.4 °C -17.4 °C 34303.6 hPa NW 29.8 km/h 29.8 km/h 68 % 0 mm 0.0 W/m2 CLR
20:58 -14.4 °C -17.4 °C 34303.6 hPa NW 38.8 km/h 38.8 km/h 68 % 0 mm 0.0 W/m2 CLR
21:03 -14.4 °C -17.4 °C 34303.6 hPa NW 38.8 km/h 38.8 km/h 68 % 0 mm 0.0 W/m2 CLR
21:13 -14.4 °C -17.6 °C 34303.6 hPa NW 44.7 km/h 44.7 km/h 67 % 0 mm 0.0 W/m2 CLR
21:18 -14.4 °C -17.4 °C 34293.4 hPa West 41.7 km/h 41.7 km/h 68 % 0 mm 0.0 W/m2 CLR
21:23 -14.4 °C -17.4 °C 34293.4 hPa WNW 41.7 km/h 41.7 km/h 68 % 0 mm 0.0 W/m2 CLR
21:28 -14.4 °C -17.4 °C 34293.4 hPa NW 53.6 km/h 53.6 km/h 68 % 0 mm 0.0 W/m2 CLR
21:33 -14.4 °C -17.4 °C 34293.4 hPa NW 50.7 km/h 50.7 km/h 68 % 0 mm 0.0 W/m2 CLR
21:38 -14.4 °C -17.4 °C 34293.4 hPa NW 44.7 km/h 44.7 km/h 68 % 0 mm 0.0 W/m2 CLR
21:43 -14.4 °C -17.6 °C 34303.6 hPa NW 50.7 km/h 50.7 km/h 67 % 0 mm 0.0 W/m2 CLR
21:48 -14.4 °C -17.6 °C 34303.6 hPa WNW 51.8 km/h 51.8 km/h 67 % 0 mm 0.0 W/m2 CLR
21:53 -14.4 °C -17.7 °C 34303.6 hPa WNW 35.7 km/h 35.7 km/h 66 % 0 mm 0.0 W/m2 CLR
22:03 -14.4 °C -17.6 °C 34313.7 hPa NW 44.7 km/h 44.7 km/h 67 % 0 mm 0.0 W/m2 CLR
22:13 -14.7 °C -17.8 °C 34313.7 hPa WNW 50.7 km/h 50.7 km/h 67 % 0 mm 0.0 W/m2 CLR
22:19 -14.7 °C -17.8 °C 34313.7 hPa WNW 41.7 km/h 41.7 km/h 67 % 0 mm 0.0 W/m2 CLR
22:24 -14.7 °C -17.8 °C 34313.7 hPa West 46.7 km/h 46.7 km/h 67 % 0 mm 0.0 W/m2 CLR
22:29 -14.7 °C -17.8 °C 34313.7 hPa NW 44.7 km/h 44.7 km/h 67 % 0 mm 0.0 W/m2 CLR
22:39 -14.7 °C -17.8 °C 34313.7 hPa WNW 29.8 km/h 29.8 km/h 67 % 0 mm 0.0 W/m2 CLR
22:44 -14.7 °C -17.7 °C 34313.7 hPa NW 38.8 km/h 38.8 km/h 68 % 0 mm 0.0 W/m2 CLR
22:46 -14.7 °C -17.7 °C 34313.7 hPa WNW 44.7 km/h 44.7 km/h 68 % 0 mm 0.0 W/m2 CLR
22:56 -15 °C -18 °C 34327.3 hPa NW 35.7 km/h 35.7 km/h 68 % 0 mm 0.0 W/m2 CLR
23:01 -15 °C -17.9 °C 34313.7 hPa North 35.7 km/h 35.7 km/h 69 % 0 mm 0.0 W/m2 CLR
23:06 -15 °C -17.9 °C 34327.3 hPa WNW 44.7 km/h 44.7 km/h 69 % 0 mm 0.0 W/m2 CLR
23:16 -15 °C -17.8 °C 34327.3 hPa WNW 47.6 km/h 47.6 km/h 70 % 0 mm 0.0 W/m2 CLR
23:21 -15 °C -17.8 °C 34327.3 hPa NW 38.8 km/h 38.8 km/h 70 % 0 mm 0.0 W/m2 CLR
23:26 -15 °C -17.8 °C 34327.3 hPa NNW 29.8 km/h 29.8 km/h 70 % 0 mm 0.0 W/m2 CLR
23:31 -15.3 °C -18.1 °C 34327.3 hPa NW 29.8 km/h 29.8 km/h 70 % 0 mm 0.0 W/m2 CLR
23:36 -15 °C -17.7 °C 34327.3 hPa NW 41.4 km/h 41.4 km/h 71 % 0 mm 0.0 W/m2 CLR
23:41 -15 °C -17.7 °C 34327.3 hPa NW 41.7 km/h 41.7 km/h 71 % 0 mm 0.0 W/m2 CLR
23:52 -15 °C -17.6 °C 34327.3 hPa NW 56.6 km/h 56.6 km/h 72 % 0 mm 0.0 W/m2 CLR
23:57 -15 °C -17.6 °C 34327.3 hPa NNW 47.6 km/h 47.6 km/h 72 % 0 mm 0.0 W/m2 CLR
Lo Temps de Massalio
Compliments of Weather Underground - 1 mb